This is the latest recevied weather packets stored in our database for station/object W7TRD. If no packets are shown the sender has not sent any weather packets the latest 10 day(s).
| Time | Temp. | Humidity | Pressure | Rain* | Wind** | Luminosity | Snow |
|---|---|---|---|---|---|---|---|
| 1787786673 | 25.56° C | 50% | 1016.5 hPa | 0 mm | - | 128 W/m² | - |
| 1787786372 | 26.11° C | 50% | 1016.8 hPa | 0 mm | - | 122 W/m² | - |
| 1787786069 | 26.11° C | 49% | 1016.8 hPa | 0 mm | - | 107 W/m² | - |
| 1787785764 | 26.11° C | 50% | 1016.7 hPa | 0 mm | - | 94 W/m² | - |
| 1787785460 | 25.56° C | 49% | 1016.6 hPa | 0 mm | - | 83 W/m² | - |
| 1787785159 | 25.56° C | 51% | 1017 hPa | 0 mm | - | 71 W/m² | - |
| 1787784854 | 26.11° C | 51% | 1016.9 hPa | 0 mm | - | 73 W/m² | - |
| 1787784554 | 26.11° C | 49% | 1016.9 hPa | 0 mm | - | 67 W/m² | - |
| 1787784253 | 26.11° C | 50% | 1016.9 hPa | 0 mm | - | 76 W/m² | - |
| 1787783948 | 26.11° C | 50% | 1017.1 hPa | 0 mm | - | 82 W/m² | - |
| 1787783644 | 26.11° C | 50% | 1017.1 hPa | 0 mm | - | 83 W/m² | - |
| 1787783343 | 26.11° C | 51% | 1017.3 hPa | 0 mm | - | 75 W/m² | - |
| 1787783039 | 26.11° C | 50% | 1017.3 hPa | 0 mm | - | 233 W/m² | - |
| 1787782738 | 26.11° C | 49% | 1017.1 hPa | 0 mm | - | 624 W/m² | - |
| 1787782435 | 26.67° C | 47% | 1017.5 hPa | 0 mm | - | 535 W/m² | - |
| 1787782130 | 27.22° C | 48% | 1017.5 hPa | 0 mm | - | 618 W/m² | - |
| 1787781825 | 25.56° C | 51% | 1017.4 hPa | 0 mm | - | 643 W/m² | - |
| 1787781523 | 25.56° C | 51% | 1017.8 hPa | 0 mm | - | 656 W/m² | - |
| 1787781222 | 26.11° C | 51% | 1017.5 hPa | 0 mm | - | 663 W/m² | - |
| 1787780920 | 27.22° C | 48% | 1017.6 hPa | 0 mm | - | 683 W/m² | - |
| 1787780615 | 27.22° C | 49% | 1017.8 hPa | 0 mm | - | 646 W/m² | - |
| 1787780310 | 26.11° C | 51% | 1017.8 hPa | 0 mm | - | 692 W/m² | - |
| 1787780006 | 25° C | 53% | 1017.8 hPa | 0 mm | - | 714 W/m² | - |
| 1787779701 | 25° C | 54% | 1017.7 hPa | 0 mm | - | 645 W/m² | - |
| 1787779400 | 25.56° C | 54% | 1018 hPa | 0 mm | - | 609 W/m² | - |
* Rain latest hour (hover to see other rain measurements)
** Current wind speed in m/s (hover to see current wind gust speed)